Sierra Vista, Arizona
Current Conditions -  °F | °C
As of 7:55 PM on Tuesday 25 Nov 2014 (Local Time) from KFHU Reporting Station
Clear Clear  
Wind Chill: 41°   Ceiling: Unl
Heat Index: 45°   Visibility: 10mi
Dew Point:   Wind: 6mph
Humidity: 15%   Direction: 260°W
Pressure: 30.34"   Gusts: NA
Location:  31.57°N, 110.32°W
Report Text: KFHU 260255Z 26005KT 10SM CLR 07/M18 A3034 RMK SLP272 53003
Loading
Personal Weather Stations






























Interactive Weather Map New forecast layout! Learn more

10-Day Weather Forecast

Advertisements
Track Severe Weather on mobile